Time;durP1;ratioP1;P1;durP2;ratioP2;P2;SDS_P1;SDS_P2;PMS_P1;PMS_P2;Temp;Humidity;BMP_temperature;BMP_pressure;BME280_temperature;BME280_humidity;BME280_pressure;Samples;Min_cycle;Max_cycle;Signal;HPM_P1;HPM_P2
2022/08/26 00:00:51;;;;;;;2.95;1.60;;;18.00;62.40;;;;;;5023509;28;20547;-86
2022/08/26 00:03:18;;;;;;;3.58;1.38;;;18.00;62.50;;;;;;5036153;28;20333;-84
2022/08/26 00:05:45;;;;;;;6.00;1.88;;;18.00;62.60;;;;;;5020920;28;20154;-84
2022/08/26 00:08:12;;;;;;;2.47;1.35;;;17.90;62.40;;;;;;5018703;28;20017;-86
2022/08/26 00:10:39;;;;;;;3.53;1.88;;;17.90;62.50;;;;;;5025189;28;20037;-84
2022/08/26 00:13:06;;;;;;;1.90;1.13;;;17.80;62.40;;;;;;5023458;28;20253;-84
2022/08/26 00:15:32;;;;;;;4.00;2.03;;;17.80;62.40;;;;;;5024231;28;20510;-84
2022/08/26 00:17:58;;;;;;;3.65;1.55;;;17.80;62.50;;;;;;5022350;28;20034;-85
2022/08/26 00:20:30;;;;;;;2.25;1.10;;;17.70;62.40;;;;;;5024389;28;20387;-84
2022/08/26 00:22:56;;;;;;;4.15;1.40;;;17.80;62.70;;;;;;5023834;28;20488;-84
2022/08/26 00:25:23;;;;;;;4.05;1.40;;;17.70;62.50;;;;;;5022637;28;20124;-83
2022/08/26 00:27:49;;;;;;;1.80;1.00;;;17.70;63.00;;;;;;5025710;28;20034;-83
2022/08/26 00:30:23;;;;;;;3.80;1.20;;;17.60;62.50;;;;;;5027879;28;20351;-84
2022/08/26 00:32:49;;;;;;;2.70;1.15;;;17.60;62.60;;;;;;5025014;28;20038;-84
2022/08/26 00:35:16;;;;;;;2.85;1.38;;;17.50;62.40;;;;;;5024744;28;20053;-83
2022/08/26 00:37:43;;;;;;;4.20;1.85;;;17.50;62.50;;;;;;5024554;28;20022;-83
2022/08/26 00:40:16;;;;;;;4.38;2.00;;;17.50;62.60;;;;;;5024643;28;20043;-84
2022/08/26 00:42:43;;;;;;;;;;;17.40;62.50;;;;;;5026610;28;20025;-84
2022/08/26 00:45:10;;;;;;;2.05;1.50;;;17.50;62.70;;;;;;5027837;28;19924;-84
2022/08/26 00:47:42;;;;;;;3.17;1.67;;;17.40;62.40;;;;;;5022609;28;20503;-84
2022/08/26 00:50:13;;;;;;;3.28;1.45;;;17.40;62.60;;;;;;5023772;28;20405;-84
2022/08/26 00:52:40;;;;;;;2.13;1.25;;;17.30;62.50;;;;;;5025934;28;20086;-84
2022/08/26 00:55:32;;;;;;;2.60;1.17;;;17.30;62.50;;;;;;5027959;28;20029;-84
2022/08/26 00:57:59;;;;;;;2.72;1.42;;;17.20;62.60;;;;;;5026160;28;20409;-83
2022/08/26 01:00:27;;;;;;;2.53;1.40;;;17.20;62.50;;;;;;5026802;28;20021;-84
2022/08/26 01:02:54;;;;;;;3.45;1.90;;;17.10;62.50;;;;;;5022195;28;20096;-84
2022/08/26 01:05:21;;;;;;;2.28;1.10;;;17.20;62.80;;;;;;5005919;28;20048;-84
2022/08/26 01:07:48;;;;;;;2.58;1.40;;;17.10;62.60;;;;;;5041651;28;20029;-83
2022/08/26 01:10:18;;;;;;;2.08;1.15;;;17.10;62.70;;;;;;5027531;28;20018;-84
2022/08/26 01:12:54;;;;;;;2.75;0.90;;;17.10;62.70;;;;;;5021869;28;20073;-82
2022/08/26 01:15:25;;;;;;;6.18;2.22;;;17.00;62.70;;;;;;5024896;28;20037;-83
2022/08/26 01:17:52;;;;;;;2.40;1.30;;;17.00;62.70;;;;;;5021073;28;20033;-85
2022/08/26 01:20:30;;;;;;;1.77;1.15;;;17.00;62.70;;;;;;5026411;28;20040;-84
2022/08/26 01:22:59;;;;;;;1.75;1.17;;;17.00;62.90;;;;;;5026598;28;20083;-84
2022/08/26 01:25:29;;;;;;;3.08;1.90;;;16.90;62.70;;;;;;5024039;28;20026;-85
2022/08/26 01:27:57;;;;;;;4.40;1.73;;;16.90;62.80;;;;;;5023880;28;20025;-84
2022/08/26 01:30:26;;;;;;;1.75;0.85;;;16.80;62.70;;;;;;5024946;28;20112;-82
2022/08/26 01:32:56;;;;;;;1.77;1.38;;;16.80;62.70;;;;;;5023785;28;20025;-82
2022/08/26 01:35:23;;;;;;;3.75;1.45;;;16.80;62.80;;;;;;5024134;28;20029;-83
2022/08/26 01:37:53;;;;;;;3.70;1.35;;;16.70;62.60;;;;;;5026158;28;20022;-84
2022/08/26 01:40:25;;;;;;;2.78;1.30;;;16.80;62.90;;;;;;5024463;28;20040;-83
2022/08/26 01:42:53;;;;;;;2.75;1.48;;;16.70;62.80;;;;;;5023973;28;20098;-84
2022/08/26 01:45:24;;;;;;;3.28;1.40;;;16.70;62.80;;;;;;5042317;28;20018;-84
2022/08/26 01:47:53;;;;;;;1.90;0.90;;;16.70;62.90;;;;;;5049829;28;20053;-85
2022/08/26 01:50:27;;;;;;;2.22;1.10;;;16.60;62.70;;;;;;5050212;28;20021;-84
2022/08/26 01:52:56;;;;;;;3.72;1.10;;;16.60;62.80;;;;;;5051428;28;20072;-85
2022/08/26 01:55:23;;;;;;;2.42;0.95;;;16.60;62.90;;;;;;5046890;28;20094;-85
2022/08/26 01:57:53;;;;;;;2.40;1.38;;;16.60;62.90;;;;;;5029318;28;20038;-84
2022/08/26 02:00:20;;;;;;;1.70;1.10;;;16.50;62.80;;;;;;5028156;28;20026;-85
2022/08/26 02:02:49;;;;;;;2.88;1.27;;;16.50;62.80;;;;;;5025815;28;20480;-84
2022/08/26 02:05:18;;;;;;;1.75;0.90;;;16.40;62.70;;;;;;5039880;28;20052;-85
2022/08/26 02:07:45;;;;;;;2.35;1.50;;;16.40;62.90;;;;;;5025110;28;20178;-86
2022/08/26 02:10:11;;;;;;;3.22;1.25;;;16.40;62.90;;;;;;5028171;28;20033;-84
2022/08/26 02:12:38;;;;;;;2.10;1.13;;;16.40;63.00;;;;;;5009493;28;20051;-86
2022/08/26 02:15:08;;;;;;;1.95;0.98;;;16.30;62.80;;;;;;5027715;28;20396;-86
2022/08/26 02:17:42;;;;;;;3.95;1.67;;;16.30;62.90;;;;;;5026787;28;20083;-85
2022/08/26 02:20:13;;;;;;;1.27;0.85;;;16.30;62.90;;;;;;5026644;28;20021;-85
2022/08/26 02:22:40;;;;;;;2.15;1.00;;;16.20;62.80;;;;;;5009190;28;20029;-85
2022/08/26 02:25:23;;;;;;;3.15;1.10;;;16.20;62.90;;;;;;5025299;28;20025;-85
2022/08/26 02:27:50;;;;;;;2.65;0.90;;;16.20;63.00;;;;;;5026023;28;20094;-84
2022/08/26 02:30:26;;;;;;;3.17;1.30;;;16.20;63.50;;;;;;5026670;28;20505;-85
2022/08/26 02:32:53;;;;;;;2.90;1.05;;;16.10;62.90;;;;;;5026325;28;20043;-85
2022/08/26 02:35:21;;;;;;;1.40;0.88;;;16.10;62.90;;;;;;5028706;28;20474;-85
2022/08/26 02:37:49;;;;;;;2.25;0.95;;;16.10;63.00;;;;;;5028305;28;20037;-85
2022/08/26 02:40:24;;;;;;;1.75;1.02;;;16.10;63.00;;;;;;5028203;28;20029;-85
2022/08/26 02:42:51;;;;;;;2.95;1.23;;;16.10;63.10;;;;;;5025921;28;20033;-85
2022/08/26 02:45:19;;;;;;;3.53;1.35;;;16.00;62.90;;;;;;5027895;28;20033;-84
2022/08/26 02:47:46;;;;;;;2.70;0.85;;;16.00;63.00;;;;;;5025458;28;20111;-82
2022/08/26 02:50:13;;;;;;;2.08;0.90;;;16.00;63.00;;;;;;5026640;28;20150;-84
2022/08/26 02:52:39;;;;;;;1.73;1.38;;;15.90;62.90;;;;;;5026879;28;20029;-84
2022/08/26 02:55:06;;;;;;;1.88;1.23;;;15.90;63.00;;;;;;5025927;28;20021;-85
2022/08/26 02:57:32;;;;;;;2.47;1.48;;;15.90;63.00;;;;;;5025453;28;20083;-84
2022/08/26 02:59:59;;;;;;;2.92;1.77;;;15.90;63.00;;;;;;5026885;28;20152;-83
2022/08/26 03:02:27;;;;;;;1.63;0.90;;;15.80;62.90;;;;;;5026313;28;20461;-83
2022/08/26 03:04:53;;;;;;;2.20;0.93;;;15.80;63.00;;;;;;5042171;28;20021;-83
2022/08/26 03:07:19;;;;;;;2.00;1.00;;;15.80;63.00;;;;;;5027214;28;20497;-83
2022/08/26 03:09:45;;;;;;;1.75;0.90;;;15.80;63.00;;;;;;5026075;28;20021;-82
2022/08/26 03:12:11;;;;;;;4.05;1.27;;;15.70;62.90;;;;;;5027807;28;20032;-82
2022/08/26 03:14:37;;;;;;;0.80;0.75;;;15.70;63.00;;;;;;5026825;28;20099;-84
2022/08/26 03:17:03;;;;;;;2.42;1.00;;;15.70;63.00;;;;;;5006754;28;20026;-83
2022/08/26 03:19:30;;;;;;;4.75;1.17;;;15.70;63.10;;;;;;4993289;28;20041;-83
2022/08/26 03:21:57;;;;;;;2.70;0.98;;;15.60;63.00;;;;;;5020074;28;20033;-83
2022/08/26 03:24:24;;;;;;;1.17;0.80;;;15.60;63.00;;;;;;5025751;28;20119;-83
2022/08/26 03:26:54;;;;;;;1.40;0.85;;;15.60;63.10;;;;;;5025840;28;20048;-83
2022/08/26 03:32:06;;;;;;;2.88;0.80;;;15.50;63.00;;;;;;5025157;28;20079;-82
2022/08/26 03:34:32;;;;;;;1.13;0.90;;;15.50;63.00;;;;;;5028486;28;20413;-84
2022/08/26 03:36:59;;;;;;;1.20;0.80;;;15.50;63.10;;;;;;5010665;28;20648;-83
2022/08/26 03:39:25;;;;;;;0.95;0.75;;;15.50;63.10;;;;;;5027086;28;20029;-84
2022/08/26 03:41:51;;;;;;;2.60;0.88;;;15.40;63.00;;;;;;5028117;28;20476;-84
2022/08/26 03:44:17;;;;;;;1.83;0.90;;;15.40;63.00;;;;;;5010070;28;20027;-84
2022/08/26 03:46:43;;;;;;;1.77;0.90;;;15.40;63.60;;;;;;5048426;28;20052;-84
2022/08/26 03:49:09;;;;;;;1.70;0.95;;;15.40;63.10;;;;;;5033784;28;20041;-85
2022/08/26 03:51:36;;;;;;;2.30;1.00;;;15.40;63.10;;;;;;5036083;28;20500;-83
2022/08/26 03:54:03;;;;;;;1.80;1.23;;;15.30;63.00;;;;;;5042961;28;20494;-83
2022/08/26 03:56:29;;;;;;;4.05;1.30;;;15.30;63.00;;;;;;5043527;28;20041;-84
2022/08/26 03:58:55;;;;;;;3.55;1.10;;;15.30;63.00;;;;;;5047546;28;20056;-83
2022/08/26 04:01:21;;;;;;;2.30;0.85;;;15.30;63.10;;;;;;5048289;28;20021;-82
2022/08/26 04:03:58;;;;;;;2.88;0.82;;;15.20;63.00;;;;;;5037327;28;20081;-83
2022/08/26 04:06:34;;;;;;;1.50;0.63;;;15.20;63.00;;;;;;5040297;28;20037;-84
2022/08/26 04:09:04;;;;;;;2.45;0.80;;;15.20;63.00;;;;;;5030817;28;20013;-83
2022/08/26 04:11:32;;;;;;;2.05;0.80;;;15.20;63.00;;;;;;5049932;28;20067;-83
2022/08/26 04:13:59;;;;;;;1.35;0.90;;;15.20;63.10;;;;;;5040255;28;20053;-84
2022/08/26 04:16:27;;;;;;;1.33;0.90;;;15.10;63.00;;;;;;5025755;28;20029;-83
2022/08/26 04:18:54;;;;;;;2.67;1.02;;;15.10;63.00;;;;;;5025517;28;20507;-83
2022/08/26 04:21:21;;;;;;;1.77;0.82;;;15.10;63.00;;;;;;5025404;28;20124;-83
2022/08/26 04:23:48;;;;;;;1.42;0.60;;;15.10;63.10;;;;;;5029860;28;20032;-85
2022/08/26 04:26:16;;;;;;;2.42;0.80;;;15.00;62.90;;;;;;5022200;28;20041;-83
2022/08/26 04:28:42;;;;;;;1.02;0.82;;;15.00;63.00;;;;;;5025175;28;20033;-84
2022/08/26 04:31:14;;;;;;;2.90;1.05;;;15.00;63.10;;;;;;4989010;28;20037;-85
2022/08/26 04:33:41;;;;;;;1.13;0.90;;;15.00;63.10;;;;;;5004751;28;20033;-85
2022/08/26 04:36:07;;;;;;;1.23;0.75;;;15.00;63.20;;;;;;5008653;28;20477;-84
2022/08/26 04:38:33;;;;;;;1.35;0.80;;;14.90;63.00;;;;;;5024340;28;20052;-85
2022/08/26 04:40:59;;;;;;;1.25;0.80;;;14.90;63.00;;;;;;5008435;28;20116;-84
2022/08/26 04:43:29;;;;;;;3.28;1.05;;;14.90;63.10;;;;;;5026148;28;20026;-84
2022/08/26 04:46:00;;;;;;;1.90;0.82;;;14.90;63.10;;;;;;5011181;28;20397;-83
2022/08/26 04:48:30;;;;;;;0.98;0.70;;;14.90;63.20;;;;;;5023301;28;20049;-84
2022/08/26 04:50:58;;;;;;;2.10;1.00;;;14.80;63.00;;;;;;5023323;28;20076;-84
2022/08/26 04:53:25;;;;;;;2.10;0.95;;;14.80;63.00;;;;;;5023890;28;20097;-83
2022/08/26 04:55:51;;;;;;;2.05;0.77;;;14.80;63.10;;;;;;5041243;28;20522;-84
2022/08/26 04:58:19;;;;;;;3.40;0.93;;;14.80;63.10;;;;;;5024108;28;20026;-83
2022/08/26 05:00:47;;;;;;;2.15;0.90;;;14.80;63.70;;;;;;5023927;28;20496;-84
2022/08/26 05:03:14;;;;;;;1.70;0.63;;;14.70;63.00;;;;;;5005562;28;20030;-85
2022/08/26 05:05:43;;;;;;;2.50;0.70;;;14.70;63.00;;;;;;5023758;28;20026;-86
2022/08/26 05:08:10;;;;;;;0.73;0.68;;;14.70;63.10;;;;;;5025467;28;20017;-85
2022/08/26 05:10:47;;;;;;;1.38;0.70;;;14.70;63.10;;;;;;5024790;28;20030;-84
2022/08/26 05:13:16;;;;;;;1.58;0.80;;;14.70;63.20;;;;;;5026500;28;20037;-85
2022/08/26 05:15:43;;;;;;;1.73;0.77;;;14.60;63.00;;;;;;5027551;28;20043;-83
2022/08/26 05:18:12;;;;;;;1.58;0.70;;;14.60;63.10;;;;;;5026731;28;20609;-84
2022/08/26 05:20:40;;;;;;;1.75;0.82;;;14.60;63.10;;;;;;5025238;28;20512;-87
2022/08/26 05:23:06;;;;;;;1.27;0.70;;;14.60;63.10;;;;;;5042385;28;20037;-84
2022/08/26 05:25:40;;;;;;;1.55;0.90;;;14.50;62.90;;;;;;4994298;28;20106;-83
2022/08/26 05:28:07;;;;;;;2.70;1.08;;;14.50;63.00;;;;;;5010721;28;20029;-84
2022/08/26 05:30:34;;;;;;;1.75;1.10;;;14.50;63.00;;;;;;5010966;28;20060;-82
2022/08/26 05:33:00;;;;;;;1.65;0.65;;;14.50;63.00;;;;;;5009121;28;20040;-81
2022/08/26 05:35:32;;;;;;;2.63;0.77;;;14.50;63.00;;;;;;5026843;28;20023;-84
2022/08/26 05:38:03;;;;;;;1.40;0.70;;;14.50;63.00;;;;;;5024990;28;20034;-84
2022/08/26 05:40:38;;;;;;;2.00;0.70;;;14.40;62.80;;;;;;5017494;28;20314;-84
2022/08/26 05:43:09;;;;;;;2.20;0.98;;;14.50;63.10;;;;;;4993731;28;20431;-82
2022/08/26 05:45:44;;;;;;;1.55;0.75;;;14.50;63.00;;;;;;5026405;28;20033;-83
2022/08/26 05:48:10;;;;;;;2.55;0.80;;;14.60;63.10;;;;;;5026591;28;20504;-82
2022/08/26 05:50:45;;;;;;;1.10;0.80;;;14.60;63.00;;;;;;5009350;28;20037;-82
2022/08/26 05:53:13;;;;;;;1.48;0.70;;;14.70;63.20;;;;;;5028164;28;20025;-81
2022/08/26 05:55:48;;;;;;;2.40;0.93;;;14.70;63.00;;;;;;5025898;28;20034;-81
2022/08/26 05:58:16;;;;;;;2.10;0.98;;;14.70;62.90;;;;;;5026172;28;20412;-82
2022/08/26 06:00:42;;;;;;;1.83;0.70;;;14.80;62.90;;;;;;5007319;28;20091;-82
2022/08/26 06:03:09;;;;;;;2.10;0.70;;;14.90;62.90;;;;;;4994760;28;20083;-84
2022/08/26 06:05:39;;;;;;;1.63;0.90;;;15.00;62.90;;;;;;5024769;28;20034;-84
2022/08/26 06:08:12;;;;;;;2.08;0.75;;;15.00;62.90;;;;;;5010901;28;20561;-83
2022/08/26 06:10:55;;;;;;;1.63;0.90;;;15.00;62.70;;;;;;5014165;28;20010;-81
2022/08/26 06:13:28;;;;;;;2.42;0.80;;;15.10;62.90;;;;;;5044280;28;20048;-81
2022/08/26 06:15:55;;;;;;;2.10;1.13;;;15.10;62.70;;;;;;5029950;28;20037;-81
2022/08/26 06:18:26;;;;;;;1.35;0.90;;;15.20;62.70;;;;;;5048459;28;20049;-81
2022/08/26 06:20:53;;;;;;;3.83;1.10;;;15.20;62.70;;;;;;5031092;28;20043;-82
2022/08/26 06:26:07;;;;;;;2.70;0.85;;;15.30;62.70;;;;;;5029781;28;20071;-81
2022/08/26 06:28:33;;;;;;;3.42;1.90;;;15.50;62.80;;;;;;5031027;28;20036;-82
2022/08/26 06:31:01;;;;;;;1.60;1.00;;;15.80;62.90;;;;;;5041315;28;20386;-82
2022/08/26 06:33:27;;;;;;;3.08;0.80;;;16.10;63.00;;;;;;5023955;28;20145;-83
2022/08/26 06:35:54;;;;;;;6.13;1.08;;;16.40;63.00;;;;;;5022858;28;20035;-83
2022/08/26 06:38:21;;;;;;;3.58;0.93;;;16.70;62.90;;;;;;4995803;28;20104;-81
2022/08/26 06:40:50;;;;;;;4.13;1.60;;;17.00;62.80;;;;;;5024954;28;20040;-85
2022/08/26 06:43:18;;;;;;;2.83;1.08;;;17.30;62.70;;;;;;5025364;28;20024;-83
2022/08/26 06:45:45;;;;;;;6.38;1.73;;;17.50;62.60;;;;;;5007829;28;20029;-84
2022/08/26 06:48:18;;;;;;;3.42;1.08;;;17.80;62.70;;;;;;5039751;28;20045;-86
2022/08/26 06:50:45;;;;;;;6.20;2.53;;;17.80;62.50;;;;;;5022821;28;20333;-86
2022/08/26 06:53:12;;;;;;;4.57;1.80;;;17.80;62.60;;;;;;5023695;28;20024;-85
2022/08/26 06:55:45;;;;;;;3.80;1.38;;;17.70;62.70;;;;;;5022794;28;20117;-83
2022/08/26 06:58:13;;;;;;;6.40;1.50;;;17.60;63.00;;;;;;5039656;28;20407;-80
2022/08/26 07:00:39;;;;;;;2.95;1.17;;;17.60;63.30;;;;;;5028713;28;20493;-81
2022/08/26 07:03:06;;;;;;;5.93;1.38;;;17.50;63.40;;;;;;5021205;28;20029;-81
2022/08/26 07:05:33;;;;;;;2.13;1.17;;;17.50;63.60;;;;;;5006696;28;20107;-82
2022/08/26 07:07:59;;;;;;;2.03;1.00;;;17.50;63.90;;;;;;5024080;28;20041;-84
2022/08/26 07:10:26;;;;;;;3.20;1.30;;;17.40;64.00;;;;;;5007977;28;20033;-83
2022/08/26 07:12:52;;;;;;;5.25;0.90;;;17.40;64.10;;;;;;5024079;28;20030;-83
2022/08/26 07:15:19;;;;;;;3.80;1.25;;;17.40;64.60;;;;;;5028818;28;20025;-84
2022/08/26 07:17:45;;;;;;;2.78;1.05;;;17.40;64.10;;;;;;5024205;28;20021;-83
2022/08/26 07:20:12;;;;;;;7.43;2.05;;;17.40;64.20;;;;;;5025478;28;20036;-82
2022/08/26 07:22:38;;;;;;;5.90;1.17;;;17.50;64.50;;;;;;5022163;28;20048;-81
2022/08/26 07:25:06;;;;;;;3.25;1.02;;;17.50;64.50;;;;;;5022333;28;20033;-82
2022/08/26 07:27:34;;;;;;;3.65;1.20;;;17.50;64.40;;;;;;5019439;28;20068;-85
2022/08/26 07:30:00;;;;;;;4.57;1.92;;;17.50;64.40;;;;;;5025797;28;20091;-85
2022/08/26 07:32:26;;;;;;;5.03;1.65;;;17.60;64.50;;;;;;5023402;28;20070;-82
2022/08/26 07:34:52;;;;;;;5.47;1.30;;;17.60;64.50;;;;;;5010406;28;20036;-84
2022/08/26 07:37:19;;;;;;;7.30;2.28;;;17.70;64.70;;;;;;5026393;28;20029;-90
2022/08/26 07:39:45;;;;;;;6.43;2.50;;;17.70;64.70;;;;;;5010251;28;20037;-94
2022/08/26 07:42:13;;;;;;;5.97;2.22;;;17.70;64.80;;;;;;5012196;28;20033;-96
2022/08/26 07:44:40;;;;;;;4.72;1.60;;;17.80;64.80;;;;;;5008630;28;20097;-90
2022/08/26 07:47:07;;;;;;;7.28;1.20;;;17.80;64.80;;;;;;5024343;28;20041;-92
2022/08/26 07:49:33;;;;;;;6.97;1.98;;;17.90;64.90;;;;;;5009849;28;20026;-92
2022/08/26 07:52:00;;;;;;;4.82;2.13;;;17.90;64.90;;;;;;5006862;28;20041;-92
2022/08/26 07:54:26;;;;;;;3.65;1.38;;;18.10;65.10;;;;;;5008136;28;20044;-92
2022/08/26 07:56:52;;;;;;;3.50;1.70;;;18.10;65.00;;;;;;4991480;28;20264;-89
2022/08/26 07:59:18;;;;;;;4.38;1.50;;;18.20;65.60;;;;;;5008059;28;20238;-89
2022/08/26 08:01:45;;;;;;;5.53;2.67;;;18.30;65.20;;;;;;5008184;28;20048;-91
2022/08/26 08:04:13;;;;;;;4.47;1.98;;;18.30;65.10;;;;;;5007585;28;20033;-92
2022/08/26 08:06:40;;;;;;;4.82;1.50;;;18.30;65.00;;;;;;5008306;28;20055;-91
2022/08/26 08:09:06;;;;;;;3.95;1.70;;;18.30;64.90;;;;;;5026887;28;20369;-91
2022/08/26 08:11:32;;;;;;;4.45;1.45;;;18.40;65.00;;;;;;4991740;28;20535;-91
2022/08/26 08:13:59;;;;;;;3.00;1.35;;;18.40;65.00;;;;;;5007749;28;20033;-83
2022/08/26 08:16:29;;;;;;;3.00;1.40;;;18.40;65.00;;;;;;4987906;28;20388;-81
2022/08/26 08:18:55;;;;;;;4.00;1.63;;;18.50;65.30;;;;;;5018868;28;20345;-80
2022/08/26 08:21:23;;;;;;;3.33;1.38;;;18.50;65.30;;;;;;5021990;28;20029;-80
2022/08/26 08:23:49;;;;;;;5.15;1.70;;;18.60;65.50;;;;;;4984580;28;20186;-84
2022/08/26 08:26:16;;;;;;;4.80;1.65;;;18.70;65.50;;;;;;5021110;28;20041;-81
2022/08/26 08:28:42;;;;;;;5.38;1.65;;;18.80;65.50;;;;;;5023568;28;20017;-80
2022/08/26 08:31:08;;;;;;;7.10;1.42;;;18.90;65.20;;;;;;5020055;28;20099;-81
2022/08/26 08:33:34;;;;;;;5.78;1.95;;;19.10;65.00;;;;;;5020177;28;20040;-81
2022/08/26 08:36:00;;;;;;;2.35;1.08;;;19.20;64.60;;;;;;5022082;28;20887;-83
2022/08/26 08:38:28;;;;;;;6.88;1.40;;;19.40;64.20;;;;;;5007565;28;20575;-82
2022/08/26 08:40:54;;;;;;;3.95;1.17;;;19.60;64.00;;;;;;4999032;28;20026;-83
2022/08/26 08:43:37;;;;;;;5.35;1.90;;;19.70;63.60;;;;;;5005349;28;20519;-81
2022/08/26 08:46:09;;;;;;;1.95;1.42;;;19.90;63.10;;;;;;5003867;28;20136;-82
2022/08/26 08:48:41;;;;;;;5.78;1.10;;;20.10;62.60;;;;;;5025072;28;20264;-82
2022/08/26 08:51:37;;;;;;;4.03;1.20;;;20.30;62.30;;;;;;5025886;28;20051;-80
2022/08/26 08:54:04;;;;;;;6.82;1.88;;;20.40;61.90;;;;;;5009604;28;20033;-82
2022/08/26 08:56:40;;;;;;;2.88;0.93;;;20.50;61.70;;;;;;5029771;28;20033;-82
2022/08/26 08:59:23;;;;;;;3.90;1.50;;;20.60;61.40;;;;;;5028493;28;20034;-86
2022/08/26 09:02:21;;;;;;;6.22;1.95;;;20.70;61.00;;;;;;5025152;28;20024;-83
2022/08/26 09:05:43;;;;;;;5.53;1.77;;;20.70;60.80;;;;;;5009161;28;20033;-83
2022/08/26 09:08:13;;;;;;;3.28;1.30;;;20.70;60.70;;;;;;4957573;28;20061;-86
2022/08/26 09:10:44;;;;;;;4.30;1.80;;;20.70;60.70;;;;;;5036321;28;20047;-85
2022/08/26 09:13:14;;;;;;;6.72;2.13;;;20.90;60.80;;;;;;5027351;28;20079;-85
2022/08/26 09:16:08;;;;;;;4.57;1.75;;;21.00;60.50;;;;;;5025967;28;20037;-84
2022/08/26 09:18:56;;;;;;;6.72;1.98;;;21.20;60.10;;;;;;4991338;28;20419;-83
2022/08/26 09:21:23;;;;;;;7.10;2.20;;;21.50;59.90;;;;;;5025485;28;20446;-84
2022/08/26 09:23:50;;;;;;;7.70;1.65;;;21.70;59.80;;;;;;5026360;28;20037;-82
2022/08/26 09:26:24;;;;;;;12.80;2.40;;;21.80;59.50;;;;;;5041951;28;20037;-82
2022/08/26 09:28:58;;;;;;;6.80;1.50;;;22.00;59.50;;;;;;5029380;28;20803;-84
2022/08/26 09:31:27;;;;;;;6.30;1.80;;;22.10;59.50;;;;;;4994138;28;20030;-88
2022/08/26 09:34:23;;;;;;;7.15;1.58;;;22.10;59.20;;;;;;5011351;28;20189;-92
2022/08/26 09:36:50;;;;;;;7.20;2.30;;;22.30;59.30;;;;;;5026182;28;20446;-88
2022/08/26 09:39:35;;;;;;;4.72;1.75;;;22.40;59.40;;;;;;5008840;28;20094;-90
2022/08/26 09:42:19;;;;;;;4.03;1.70;;;22.50;59.40;;;;;;5008272;28;20029;-87
2022/08/26 09:45:05;;;;;;;8.35;2.15;;;22.60;59.30;;;;;;5007473;28;20070;-89
2022/08/26 09:47:37;;;;;;;4.72;1.48;;;22.70;59.00;;;;;;5025020;28;20081;-89
2022/08/26 09:50:27;;;;;;;9.43;1.83;;;22.80;59.10;;;;;;5026443;28;20542;-89
2022/08/26 09:53:13;;;;;;;2.90;1.42;;;23.00;59.10;;;;;;4995353;28;20044;-89
2022/08/26 09:55:47;;;;;;;8.27;2.78;;;23.10;59.10;;;;;;5007119;28;20106;-90
2022/08/26 09:58:29;;;;;;;5.10;1.65;;;23.10;58.90;;;;;;4993866;28;20029;-89
2022/08/26 10:01:00;;;;;;;7.22;2.25;;;23.20;58.90;;;;;;4991195;28;20036;-86
2022/08/26 10:03:29;;;;;;;6.43;1.33;;;23.30;58.90;;;;;;5020879;28;20033;-87
2022/08/26 10:06:12;;;;;;;5.85;2.28;;;23.30;58.60;;;;;;5007269;28;20029;-86
2022/08/26 10:08:43;;;;;;;3.92;1.30;;;23.40;58.40;;;;;;5009601;28;20044;-84
2022/08/26 10:11:40;;;;;;;8.13;2.22;;;23.50;58.50;;;;;;4991354;28;20025;-85
2022/08/26 10:14:32;;;;;;;10.23;1.92;;;23.70;58.30;;;;;;5024408;28;20041;-90
2022/08/26 10:17:04;;;;;;;5.68;1.23;;;23.80;57.90;;;;;;5003050;28;20239;-83
2022/08/26 10:20:34;;;;;;;5.13;1.50;;;23.90;57.90;;;;;;5027863;28;20285;-84
2022/08/26 10:23:16;;;;;;;6.32;1.60;;;23.90;57.20;;;;;;4969615;28;20169;-86
2022/08/26 10:26:03;;;;;;;5.07;1.25;;;24.00;57.50;;;;;;5022986;28;20041;-87
2022/08/26 10:28:44;;;;;;;6.80;1.63;;;24.10;57.50;;;;;;5029311;28;20029;-87
2022/08/26 10:31:17;;;;;;;4.78;1.45;;;24.20;57.30;;;;;;5009177;28;20469;-88
2022/08/26 10:33:43;;;;;;;6.35;1.58;;;24.30;57.40;;;;;;5023886;28;20103;-87
2022/08/26 10:36:48;;;;;;;14.80;2.63;;;24.40;57.50;;;;;;5029199;28;20037;-89
2022/08/26 10:39:05;;;;;;;5.97;1.52;;;24.40;57.20;;;;;;5028531;28;20025;-88
2022/08/26 10:41:38;;;;;;;7.22;1.70;;;24.50;57.30;;;;;;5027674;28;20436;-87
2022/08/26 10:44:07;;;;;;;6.85;1.55;;;24.60;57.40;;;;;;5010698;28;20491;-84
2022/08/26 10:46:39;;;;;;;5.88;1.50;;;24.70;57.40;;;;;;5029584;28;20122;-86
2022/08/26 10:49:14;;;;;;;6.47;1.75;;;24.90;57.40;;;;;;5023845;28;20476;-88
2022/08/26 10:51:51;;;;;;;6.30;2.13;;;25.00;57.30;;;;;;5043514;28;20347;-88
2022/08/26 10:54:36;;;;;;;6.30;1.20;;;25.10;57.00;;;;;;5008816;28;20021;-89
2022/08/26 10:57:07;;;;;;;6.88;1.45;;;25.30;56.70;;;;;;5026042;28;20038;-82
2022/08/26 10:59:48;;;;;;;6.05;1.75;;;25.50;56.60;;;;;;5028471;28;20060;-85
2022/08/26 11:02:37;;;;;;;6.63;1.40;;;25.60;56.40;;;;;;5028104;28;20030;-86
2022/08/26 11:05:17;;;;;;;5.43;1.38;;;25.80;56.10;;;;;;5026532;28;20116;-90
2022/08/26 11:07:45;;;;;;;5.25;1.60;;;26.00;56.10;;;;;;5030269;28;20037;-86
2022/08/26 11:10:19;;;;;;;6.32;1.73;;;26.00;55.70;;;;;;4997677;28;20482;-88
2022/08/26 11:12:46;;;;;;;3.92;1.40;;;26.00;55.30;;;;;;5024826;28;20052;-87
2022/08/26 11:15:18;;;;;;;5.32;2.05;;;26.00;55.20;;;;;;5006851;28;20056;-84
2022/08/26 11:17:44;;;;;;;3.85;1.17;;;26.00;55.20;;;;;;5022249;28;20039;-86
2022/08/26 11:20:32;;;;;;;6.95;1.25;;;25.90;55.40;;;;;;5010147;28;20048;-81
2022/08/26 11:23:21;;;;;;;4.35;1.20;;;25.90;55.40;;;;;;5006993;28;20388;-83
2022/08/26 11:26:09;;;;;;;6.68;1.30;;;26.00;55.70;;;;;;5006608;28;20183;-82
2022/08/26 11:28:36;;;;;;;6.22;1.20;;;26.00;55.50;;;;;;5026732;28;20233;-85
2022/08/26 11:31:29;;;;;;;4.00;1.10;;;26.00;55.70;;;;;;5044936;28;20038;-83
2022/08/26 11:34:05;;;;;;;3.83;1.25;;;26.10;55.60;;;;;;5025602;28;20045;-86
2022/08/26 11:36:44;;;;;;;4.65;1.25;;;26.00;55.50;;;;;;5046445;28;20048;-89
2022/08/26 11:39:23;;;;;;;5.75;1.30;;;26.00;55.30;;;;;;5030868;28;20043;-91
2022/08/26 11:41:52;;;;;;;4.47;1.10;;;26.00;55.50;;;;;;5046117;28;20037;-92
2022/08/26 11:44:26;;;;;;;5.20;1.30;;;26.00;55.70;;;;;;5043178;28;20005;-87
2022/08/26 11:47:00;;;;;;;9.38;1.75;;;26.10;55.80;;;;;;5013005;28;20058;-86
2022/08/26 11:49:28;;;;;;;3.45;1.20;;;26.10;55.70;;;;;;5028763;28;20025;-89
2022/08/26 11:52:09;;;;;;;3.88;1.20;;;26.20;55.70;;;;;;5024172;28;20043;-89
2022/08/26 11:54:35;;;;;;;2.60;0.82;;;26.20;55.60;;;;;;5021915;28;20034;-89
2022/08/26 11:57:03;;;;;;;12.25;1.95;;;26.30;55.70;;;;;;4995090;28;20381;-92
2022/08/26 11:59:35;;;;;;;4.03;1.55;;;26.50;55.70;;;;;;5026991;28;20034;-93
2022/08/26 12:02:01;;;;;;;4.05;0.98;;;26.80;55.80;;;;;;5025179;28;20260;-93
2022/08/26 12:04:33;;;;;;;5.22;1.25;;;27.00;55.80;;;;;;4991450;28;20041;-85
2022/08/26 12:07:01;;;;;;;3.20;0.77;;;27.10;55.40;;;;;;5022926;28;20356;-83
2022/08/26 12:09:33;;;;;;;3.53;1.08;;;27.30;55.10;;;;;;5006432;28;20026;-85
2022/08/26 12:12:10;;;;;;;2.85;1.00;;;27.20;54.80;;;;;;5006191;28;20038;-85
2022/08/26 12:14:37;;;;;;;4.65;0.90;;;27.30;54.40;;;;;;4987218;28;20462;-82
2022/08/26 12:17:18;;;;;;;4.50;1.08;;;27.20;54.60;;;;;;5024474;28;20033;-81
2022/08/26 12:19:44;;;;;;;3.22;1.45;;;27.20;54.40;;;;;;4992524;28;20033;-86
2022/08/26 12:22:20;;;;;;;3.33;1.20;;;27.20;54.60;;;;;;5009135;28;20376;-85
2022/08/26 12:24:50;;;;;;;2.90;1.15;;;27.20;54.40;;;;;;4994686;28;20488;-88
2022/08/26 12:27:21;;;;;;;3.67;1.27;;;27.20;54.40;;;;;;4992389;28;20037;-85
2022/08/26 12:30:01;;;;;;;3.17;1.05;;;27.30;54.40;;;;;;4996846;28;20034;-90
2022/08/26 12:32:30;;;;;;;4.43;1.52;;;27.40;54.20;;;;;;5011711;28;20033;-89
2022/08/26 12:34:57;;;;;;;2.88;1.45;;;27.40;54.40;;;;;;5027553;28;20105;-89
2022/08/26 12:37:25;;;;;;;5.97;1.13;;;27.50;54.40;;;;;;5027305;28;20091;-86
2022/08/26 12:39:51;;;;;;;4.80;1.05;;;27.60;54.20;;;;;;5027925;28;20084;-84
2022/08/26 12:42:41;;;;;;;2.88;1.60;;;27.60;54.00;;;;;;5011446;28;20029;-91
2022/08/26 12:45:07;;;;;;;5.50;1.20;;;27.70;53.50;;;;;;5028547;28;20024;-90
2022/08/26 12:47:42;;;;;;;4.95;1.25;;;27.90;53.60;;;;;;5026684;28;20042;-87
2022/08/26 12:50:19;;;;;;;4.10;1.50;;;27.90;53.30;;;;;;5010198;28;20033;-82
2022/08/26 12:53:00;;;;;;;4.40;1.50;;;28.00;53.10;;;;;;5010133;28;20503;-86
2022/08/26 12:55:46;;;;;;;5.55;1.85;;;28.00;53.00;;;;;;5041659;28;20025;-88
2022/08/26 12:58:15;;;;;;;3.17;1.00;;;27.90;53.00;;;;;;4993009;28;20033;-89
2022/08/26 13:01:09;;;;;;;3.63;1.20;;;27.90;52.90;;;;;;5028826;28;20029;-89
2022/08/26 13:03:42;;;;;;;5.05;1.35;;;27.70;52.80;;;;;;5016172;28;20042;-87
2022/08/26 13:06:15;;;;;;;2.15;1.00;;;27.60;53.00;;;;;;5026234;28;20048;-87
2022/08/26 13:08:44;;;;;;;5.53;1.98;;;27.50;53.00;;;;;;5029333;28;20021;-87
2022/08/26 13:11:17;;;;;;;2.75;0.90;;;27.50;53.20;;;;;;5007913;28;20033;-89
2022/08/26 13:13:44;;;;;;;2.92;1.00;;;27.50;53.30;;;;;;5007839;28;20090;-87